Terminal Aerodrome Forecast
Issued by NWS

Home | Current Version | Previous Version | Text Only | Print | Product List | Glossary On
Versions: 1 2 3 4 5 6 7 8 9 10 11 12 13 14 15 16 17 18
000
FTUS46 KLOX 282340
TAFPMD
TAF
KPMD 282340Z 2900/2924 25015KT P6SM SKC
     FM290400 20008KT P6SM SKC
     FM290900 20006KT P6SM SKC
     FM291400 VRB03KT P6SM SKC
     FM291800 28005KT P6SM SKC
     FM292000 24008KT P6SM SKC
     FM292200 25016G22KT P6SM SKC=

USA.gov is the U.S. government's official web portal to all federal, state and local government web resources and services.